createdAt,value
2022-09-23T00:00:26.878Z,9.30
2022-09-23T00:02:56.716Z,8.70
2022-09-23T00:05:26.593Z,8.77
2022-09-23T00:07:56.332Z,8.38
2022-09-23T00:10:31.542Z,9.15
2022-09-23T00:13:02.038Z,9.13
2022-09-23T00:15:31.993Z,8.43
2022-09-23T00:18:01.980Z,8.75
2022-09-23T00:20:32.244Z,8.90
2022-09-23T00:23:02.022Z,8.82
2022-09-23T00:25:34.429Z,9.55
2022-09-23T00:28:04.687Z,9.45
2022-09-23T00:30:34.482Z,9.30
2022-09-23T00:33:04.242Z,8.95
2022-09-23T00:35:33.950Z,9.75
2022-09-23T00:38:03.696Z,10.30
2022-09-23T00:40:36.481Z,9.82
2022-09-23T00:43:06.373Z,9.93
2022-09-23T00:45:36.684Z,10.23
2022-09-23T00:48:06.938Z,10.48
2022-09-23T00:50:40.281Z,10.32
2022-09-23T00:53:13.481Z,10.35
2022-09-23T00:55:51.662Z,9.60
2022-09-23T00:58:25.169Z,10.23
2022-09-23T01:00:55.070Z,10.52
2022-09-23T01:03:24.921Z,10.52
2022-09-23T01:05:55.476Z,9.57
2022-09-23T01:08:26.938Z,10.55
2022-09-23T01:11:08.628Z,11.13
2022-09-23T01:13:47.048Z,11.02
2022-09-23T01:16:21.870Z,11.32
2022-09-23T01:19:00.326Z,11.23
2022-09-23T01:21:47.998Z,11.05
2022-09-23T01:24:29.727Z,11.60
2022-09-23T01:27:13.958Z,10.95
2022-09-23T01:30:10.740Z,10.90
2022-09-23T01:32:59.237Z,11.20
2022-09-23T01:35:34.456Z,11.55
2022-09-23T01:38:17.553Z,11.40
2022-09-23T01:40:52.886Z,11.32
2022-09-23T01:43:27.341Z,11.18
2022-09-23T01:46:02.008Z,11.60
2022-09-23T01:48:39.130Z,12.23
2022-09-23T01:51:13.368Z,11.50
2022-09-23T01:53:49.667Z,11.65
2022-09-23T01:56:25.337Z,10.80
2022-09-23T01:59:03.519Z,11.30
2022-09-23T02:01:41.508Z,10.88
2022-09-23T02:04:18.659Z,11.05
2022-09-23T02:06:55.257Z,10.80
2022-09-23T02:09:30.494Z,11.15
2022-09-23T02:12:06.908Z,11.30
2022-09-23T02:14:43.694Z,11.60
2022-09-23T02:17:17.240Z,11.32
2022-09-23T02:19:52.437Z,12.63
2022-09-23T02:22:26.969Z,11.15
2022-09-23T02:24:59.326Z,10.85
2022-09-23T02:27:33.542Z,12.30
2022-09-23T02:30:11.392Z,11.90
2022-09-23T02:32:51.528Z,11.68
2022-09-23T02:35:33.234Z,11.45
2022-09-23T02:38:17.471Z,11.27
2022-09-23T02:40:55.802Z,11.52
2022-09-23T02:43:33.998Z,12.20
2022-09-23T02:46:04.164Z,11.35
2022-09-23T02:48:38.301Z,10.95
2022-09-23T02:51:11.474Z,11.30
2022-09-23T02:53:41.813Z,11.68
2022-09-23T02:56:19.725Z,12.00
2022-09-23T02:58:50.187Z,10.85
2022-09-23T03:01:33.918Z,11.43
2022-09-23T03:04:13.314Z,11.32
2022-09-23T03:06:55.096Z,11.30
2022-09-23T03:09:32.949Z,11.10
2022-09-23T03:12:15.709Z,11.35
2022-09-23T03:14:55.853Z,11.75
2022-09-23T03:17:34.656Z,10.57
2022-09-23T03:20:10.981Z,10.82
2022-09-23T03:22:47.776Z,11.75
2022-09-23T03:25:21.703Z,10.82
2022-09-23T03:27:51.398Z,12.23
2022-09-23T03:30:21.846Z,10.95
2022-09-23T03:32:52.897Z,10.90
2022-09-23T03:35:26.940Z,11.00
2022-09-23T03:38:07.290Z,10.50
2022-09-23T03:40:43.614Z,10.55
2022-09-23T03:43:14.570Z,11.77
2022-09-23T03:45:45.117Z,10.82
2022-09-23T03:48:15.194Z,10.35
2022-09-23T03:50:44.946Z,11.02
2022-09-23T03:53:19.065Z,10.90
2022-09-23T03:55:49.101Z,10.50
2022-09-23T03:58:18.887Z,10.85
2022-09-23T04:00:49.898Z,10.88
2022-09-23T04:03:19.659Z,11.02
2022-09-23T04:05:50.120Z,10.95
2022-09-23T04:08:22.445Z,10.55
2022-09-23T04:10:54.878Z,11.25
2022-09-23T04:13:24.766Z,11.20
2022-09-23T04:15:54.581Z,11.55
2022-09-23T04:18:24.645Z,11.60
2022-09-23T04:20:54.349Z,10.93
2022-09-23T04:23:26.894Z,11.32
2022-09-23T04:25:57.182Z,10.32
2022-09-23T04:28:26.961Z,11.65
2022-09-23T04:30:57.965Z,10.88
2022-09-23T04:33:28.196Z,11.00
2022-09-23T04:35:59.140Z,10.68
2022-09-23T04:38:31.464Z,10.68
2022-09-23T04:41:01.216Z,10.90
2022-09-23T04:43:31.274Z,11.65
2022-09-23T04:46:02.475Z,12.18
2022-09-23T04:48:32.809Z,11.00
2022-09-23T04:51:06.441Z,11.45
2022-09-23T04:53:40.309Z,11.43
2022-09-23T04:56:12.424Z,11.55
2022-09-23T04:58:43.562Z,11.88
2022-09-23T05:01:15.742Z,11.02
2022-09-23T05:03:46.814Z,11.98
2022-09-23T05:06:17.580Z,11.75
2022-09-23T05:08:54.023Z,12.07
2022-09-23T05:11:24.736Z,11.13
2022-09-23T05:13:56.256Z,11.07
2022-09-23T05:16:27.342Z,11.23
2022-09-23T05:18:57.713Z,12.00
2022-09-23T05:21:29.288Z,12.32
2022-09-23T05:24:01.912Z,11.40
2022-09-23T05:26:33.344Z,11.73
2022-09-23T05:29:03.237Z,11.73
2022-09-23T05:31:33.667Z,11.80
2022-09-23T05:34:07.224Z,12.25
2022-09-23T05:36:39.349Z,11.68
2022-09-23T05:39:12.136Z,11.70
2022-09-23T05:41:43.070Z,11.93
2022-09-23T05:44:13.255Z,12.25
2022-09-23T05:46:43.041Z,12.20
2022-09-23T05:49:12.921Z,11.70
2022-09-23T05:51:42.773Z,11.68
2022-09-23T05:54:15.217Z,12.13
2022-09-23T05:56:45.017Z,11.90
2022-09-23T05:59:14.729Z,11.80
2022-09-23T06:01:44.685Z,11.38
2022-09-23T06:04:16.101Z,11.60
2022-09-23T06:06:46.247Z,11.02
2022-09-23T06:09:18.736Z,11.73
2022-09-23T06:11:48.507Z,12.05
2022-09-23T06:14:18.913Z,10.93
2022-09-23T06:16:48.617Z,12.10
2022-09-23T06:19:18.360Z,11.30
2022-09-23T06:21:48.102Z,11.95
2022-09-23T06:24:23.807Z,12.75
2022-09-23T06:26:55.922Z,11.48
2022-09-23T06:29:25.844Z,11.93
2022-09-23T06:31:55.933Z,11.40
2022-09-23T06:34:25.780Z,11.35
2022-09-23T06:36:55.823Z,11.57
2022-09-23T06:39:28.128Z,11.85
2022-09-23T06:41:57.873Z,11.50
2022-09-23T06:44:28.514Z,11.38
2022-09-23T06:46:58.308Z,10.75
2022-09-23T06:49:34.103Z,11.35
2022-09-23T06:52:05.362Z,11.82
2022-09-23T06:54:38.266Z,12.50
2022-09-23T06:57:08.167Z,11.75
2022-09-23T06:59:37.852Z,12.10
2022-09-23T07:02:07.805Z,11.80
2022-09-23T07:04:37.632Z,12.60
2022-09-23T07:07:11.617Z,12.02
2022-09-23T07:09:43.982Z,11.90
2022-09-23T07:12:14.287Z,11.55
2022-09-23T07:14:44.213Z,11.75
2022-09-23T07:17:13.908Z,11.82
2022-09-23T07:19:44.097Z,12.20
2022-09-23T07:22:13.949Z,12.80
2022-09-23T07:24:46.705Z,11.25
2022-09-23T07:27:20.127Z,11.80
2022-09-23T07:29:50.527Z,12.00
2022-09-23T07:32:20.606Z,11.55
2022-09-23T07:34:51.078Z,10.48
2022-09-23T07:37:21.384Z,11.13
2022-09-23T07:39:54.069Z,10.27
2022-09-23T07:42:23.816Z,10.63
2022-09-23T07:44:55.810Z,11.05
2022-09-23T07:47:25.609Z,11.43
2022-09-23T07:49:55.677Z,10.10
2022-09-23T07:52:25.413Z,10.80
2022-09-23T07:54:58.146Z,10.32
2022-09-23T07:57:27.878Z,10.82
2022-09-23T07:59:57.596Z,10.15
2022-09-23T08:02:27.415Z,11.80
2022-09-23T08:04:57.793Z,10.00
2022-09-23T08:07:27.591Z,10.38
2022-09-23T08:09:59.930Z,10.05
2022-09-23T08:12:31.245Z,10.68
2022-09-23T08:15:01.321Z,11.05
2022-09-23T08:17:31.036Z,11.38
2022-09-23T08:20:00.746Z,11.75
2022-09-23T08:22:30.473Z,9.60
2022-09-23T08:25:02.831Z,9.93
2022-09-23T08:27:33.127Z,9.65
2022-09-23T08:30:02.852Z,8.68
2022-09-23T08:32:33.066Z,8.05
2022-09-23T08:35:02.768Z,9.70
2022-09-23T08:37:32.497Z,10.25
2022-09-23T08:40:05.411Z,10.02
2022-09-23T08:42:38.817Z,11.27
2022-09-23T08:45:16.124Z,10.70
2022-09-23T08:47:50.177Z,8.77
2022-09-23T08:50:23.157Z,10.52
2022-09-23T08:52:57.255Z,8.88
2022-09-23T08:55:41.668Z,10.65
2022-09-23T08:58:28.589Z,11.43
2022-09-23T09:01:07.070Z,8.77
2022-09-23T09:03:42.937Z,9.43
2022-09-23T09:06:19.492Z,8.70
2022-09-23T09:08:57.341Z,9.38
2022-09-23T09:11:36.290Z,8.32
2022-09-23T09:14:18.497Z,10.45
2022-09-23T09:17:01.243Z,8.75
2022-09-23T09:19:55.451Z,7.85
2022-09-23T09:22:40.311Z,9.57
2022-09-23T09:25:21.004Z,8.10
2022-09-23T09:27:54.921Z,7.20
2022-09-23T09:30:25.883Z,7.47
2022-09-23T09:33:00.977Z,7.38
2022-09-23T09:35:39.653Z,7.93
2022-09-23T09:38:09.774Z,9.30
2022-09-23T09:40:47.935Z,7.32
2022-09-23T09:43:23.812Z,8.88
2022-09-23T09:46:06.412Z,7.35
2022-09-23T09:48:41.655Z,6.65
2022-09-23T09:51:22.056Z,8.73
2022-09-23T09:53:53.055Z,9.98
2022-09-23T09:56:26.999Z,7.57
2022-09-23T09:59:04.123Z,7.78
2022-09-23T10:01:35.617Z,6.90
2022-09-23T10:04:08.449Z,7.47
2022-09-23T10:06:39.241Z,8.10
2022-09-23T10:09:19.440Z,6.97
2022-09-23T10:12:15.046Z,7.07
2022-09-23T10:14:50.705Z,8.07
2022-09-23T10:17:24.582Z,7.75
2022-09-23T10:20:01.449Z,8.50
2022-09-23T10:22:39.886Z,8.48
2022-09-23T10:25:13.492Z,9.02
2022-09-23T10:27:43.557Z,7.97
2022-09-23T10:30:24.522Z,8.43
2022-09-23T10:32:57.064Z,7.85
2022-09-23T10:35:28.376Z,8.73
2022-09-23T10:37:59.535Z,9.30
2022-09-23T10:40:45.939Z,8.98
2022-09-23T10:43:39.044Z,9.57
2022-09-23T10:46:31.109Z,8.80
2022-09-23T10:49:25.171Z,10.23
2022-09-23T10:52:10.497Z,9.40
2022-09-23T10:54:56.490Z,10.15
2022-09-23T10:57:43.401Z,8.20
2022-09-23T11:00:23.473Z,7.80
2022-09-23T11:03:13.054Z,9.35
2022-09-23T11:05:49.259Z,8.52
2022-09-23T11:08:40.438Z,9.13
2022-09-23T11:11:20.594Z,11.05
2022-09-23T11:14:18.695Z,8.88
2022-09-23T11:17:08.460Z,9.52
2022-09-23T11:20:18.022Z,8.90
2022-09-23T11:23:00.745Z,8.27
2022-09-23T11:25:46.801Z,10.00
2022-09-23T11:28:45.571Z,9.90
2022-09-23T11:31:25.933Z,8.60
2022-09-23T11:34:16.157Z,8.40
2022-09-23T11:36:55.033Z,9.90
2022-09-23T11:39:30.079Z,10.07
2022-09-23T11:42:03.077Z,9.98
2022-09-23T11:44:37.108Z,9.88
2022-09-23T11:47:13.925Z,12.15
2022-09-23T11:49:50.581Z,9.10
2022-09-23T11:52:29.204Z,7.78
2022-09-23T11:55:08.219Z,8.40
2022-09-23T11:57:49.698Z,9.80
2022-09-23T12:00:22.347Z,9.93
2022-09-23T12:03:06.128Z,9.27
2022-09-23T12:05:40.826Z,10.15
2022-09-23T12:08:20.514Z,10.30
2022-09-23T12:10:57.672Z,10.25
2022-09-23T12:13:34.893Z,9.77
2022-09-23T12:16:36.719Z,10.07
2022-09-23T12:19:21.549Z,9.20
2022-09-23T12:22:07.077Z,10.60
2022-09-23T12:24:49.404Z,10.15
2022-09-23T12:27:28.053Z,10.63
2022-09-23T12:30:01.104Z,9.60
2022-09-23T12:32:31.524Z,13.05
2022-09-23T12:35:02.886Z,10.23
2022-09-23T12:37:37.400Z,12.35
2022-09-23T12:40:21.680Z,9.32
2022-09-23T12:42:52.777Z,10.23
2022-09-23T12:45:41.207Z,11.05
2022-09-23T12:48:41.069Z,10.80
2022-09-23T12:51:18.937Z,9.32
2022-09-23T12:54:24.814Z,11.35
2022-09-23T12:57:05.300Z,11.18
2022-09-23T12:59:50.862Z,11.07
2022-09-23T13:02:33.813Z,9.93
2022-09-23T13:05:35.629Z,9.27
2022-09-23T13:08:10.390Z,9.65
2022-09-23T13:10:48.448Z,10.02
2022-09-23T13:13:26.191Z,9.52
2022-09-23T13:15:56.661Z,11.38
2022-09-23T13:18:58.930Z,11.57
2022-09-23T13:22:03.306Z,9.98
2022-09-23T13:24:47.770Z,10.27
2022-09-23T13:27:27.029Z,10.27
2022-09-23T13:30:03.479Z,9.75
2022-09-23T13:32:35.902Z,10.40
2022-09-23T13:35:07.971Z,9.30
2022-09-23T13:37:46.323Z,10.15
2022-09-23T13:40:26.789Z,10.45
2022-09-23T13:43:00.991Z,10.93
2022-09-23T13:45:34.594Z,12.27
2022-09-23T13:48:07.679Z,10.52
2022-09-23T13:50:41.891Z,10.45
2022-09-23T13:53:14.529Z,11.43
2022-09-23T13:55:46.923Z,12.18
2022-09-23T13:58:24.000Z,13.93
2022-09-23T14:00:56.475Z,11.88
2022-09-23T14:03:36.630Z,12.80
2022-09-23T14:06:11.669Z,11.70
2022-09-23T14:08:44.327Z,12.75
2022-09-23T14:11:18.288Z,13.10
2022-09-23T14:13:51.026Z,14.55
2022-09-23T14:16:25.229Z,13.40
2022-09-23T14:18:59.522Z,15.95
2022-09-23T14:21:36.108Z,12.20
2022-09-23T14:24:16.362Z,13.02
2022-09-23T14:26:49.323Z,11.88
2022-09-23T14:29:21.781Z,11.98
2022-09-23T14:32:00.887Z,15.02
2022-09-23T14:34:48.323Z,15.13
2022-09-23T14:37:43.726Z,11.55
2022-09-23T14:40:17.894Z,12.32
2022-09-23T14:42:51.555Z,14.75
2022-09-23T14:45:25.094Z,14.05
2022-09-23T14:48:01.906Z,17.05
2022-09-23T14:50:40.718Z,13.60
2022-09-23T14:53:36.524Z,12.98
2022-09-23T14:56:18.620Z,14.40
2022-09-23T14:58:52.877Z,14.77
2022-09-23T15:01:38.092Z,14.95
2022-09-23T15:04:19.931Z,13.35
2022-09-23T15:06:55.569Z,16.73
2022-09-23T15:09:28.510Z,16.40
2022-09-23T15:12:04.051Z,14.52
2022-09-23T15:14:39.722Z,15.73
2022-09-23T15:17:19.702Z,14.63
2022-09-23T15:19:56.766Z,14.63
2022-09-23T15:22:27.855Z,16.25
2022-09-23T15:25:10.871Z,15.25
2022-09-23T15:27:41.017Z,15.80
2022-09-23T15:30:18.187Z,15.65
2022-09-23T15:32:49.321Z,15.73
2022-09-23T15:35:25.705Z,16.02
2022-09-23T15:37:59.001Z,15.30
2022-09-23T15:40:30.794Z,15.93
2022-09-23T15:43:02.714Z,14.07
2022-09-23T15:45:36.063Z,16.85
2022-09-23T15:48:10.294Z,15.55
2022-09-23T15:50:45.612Z,15.60
2022-09-23T15:53:18.266Z,17.15
2022-09-23T15:55:48.135Z,15.85
2022-09-23T15:58:17.870Z,16.38
2022-09-23T16:00:51.139Z,16.30
2022-09-23T16:03:25.902Z,16.10
2022-09-23T16:06:01.344Z,16.50
2022-09-23T16:08:33.150Z,16.85
2022-09-23T16:11:03.287Z,16.23
2022-09-23T16:13:33.033Z,16.13
2022-09-23T16:16:02.789Z,14.73
2022-09-23T16:18:32.702Z,14.82
2022-09-23T16:21:07.714Z,14.50
2022-09-23T16:23:43.646Z,17.30
2022-09-23T16:26:19.638Z,14.77
2022-09-23T16:28:51.016Z,16.10
2022-09-23T16:31:21.034Z,16.83
2022-09-23T16:33:51.553Z,13.88
2022-09-23T16:36:27.111Z,13.05
2022-09-23T16:38:58.233Z,14.43
2022-09-23T16:41:29.743Z,15.05
2022-09-23T16:44:00.881Z,13.82
2022-09-23T16:46:31.537Z,14.00
2022-09-23T16:49:02.680Z,14.98
2022-09-23T16:51:38.377Z,13.68
2022-09-23T16:54:11.973Z,13.45
2022-09-23T16:56:45.522Z,12.30
2022-09-23T16:59:16.216Z,12.57
2022-09-23T17:01:58.770Z,13.52
2022-09-23T17:04:28.549Z,14.05
2022-09-23T17:07:01.238Z,13.13
2022-09-23T17:09:32.041Z,14.23
2022-09-23T17:12:12.053Z,12.85
2022-09-23T17:14:41.745Z,14.05
2022-09-23T17:17:11.430Z,13.38
2022-09-23T17:19:41.535Z,14.48
2022-09-23T17:22:14.454Z,15.05
2022-09-23T17:24:44.221Z,12.95
2022-09-23T17:27:15.817Z,13.73
2022-09-23T17:29:45.790Z,13.32
2022-09-23T17:32:15.557Z,14.45
2022-09-23T17:34:45.696Z,14.70
2022-09-23T17:37:18.030Z,13.63
2022-09-23T17:39:47.725Z,12.88
2022-09-23T17:42:18.357Z,13.40
2022-09-23T17:44:48.268Z,12.50
2022-09-23T17:47:18.018Z,12.68
2022-09-23T17:49:50.042Z,13.52
2022-09-23T17:52:22.391Z,13.70
2022-09-23T17:54:55.182Z,12.98
2022-09-23T17:57:24.904Z,13.70
2022-09-23T17:59:56.199Z,12.80
2022-09-23T18:02:25.943Z,13.07
2022-09-23T18:04:55.676Z,12.98
2022-09-23T18:07:27.969Z,13.75
2022-09-23T18:09:57.648Z,13.35
2022-09-23T18:12:27.481Z,12.15
2022-09-23T18:14:57.165Z,11.82
2022-09-23T18:17:26.941Z,12.35
2022-09-23T18:19:56.636Z,11.73
2022-09-23T18:22:28.977Z,12.52
2022-09-23T18:24:59.030Z,11.45
2022-09-23T18:27:28.745Z,11.98
2022-09-23T18:29:58.453Z,13.10
2022-09-23T18:32:28.134Z,12.25
2022-09-23T18:34:57.968Z,12.73
2022-09-23T18:37:30.266Z,12.27
2022-09-23T18:39:59.960Z,11.63
2022-09-23T18:42:29.832Z,11.48
2022-09-23T18:44:59.648Z,12.00
2022-09-23T18:47:43.519Z,11.57
2022-09-23T18:50:27.256Z,11.48
2022-09-23T18:53:00.494Z,10.63
2022-09-23T18:55:30.252Z,13.32
2022-09-23T18:57:59.990Z,11.80
2022-09-23T19:00:30.122Z,11.32
2022-09-23T19:02:59.894Z,11.13
2022-09-23T19:05:29.572Z,12.02
2022-09-23T19:08:01.893Z,11.20
2022-09-23T19:10:31.593Z,11.35
2022-09-23T19:13:01.289Z,11.80
2022-09-23T19:15:30.991Z,12.57
2022-09-23T19:18:00.692Z,11.40
2022-09-23T19:20:30.379Z,11.57
2022-09-23T19:23:02.666Z,12.65
2022-09-23T19:25:32.373Z,12.80
2022-09-23T19:28:05.558Z,11.05
2022-09-23T19:30:35.714Z,13.10
2022-09-23T19:33:05.810Z,11.82
2022-09-23T19:35:36.193Z,11.98
2022-09-23T19:38:08.506Z,12.32
2022-09-23T19:40:39.382Z,12.30
2022-09-23T19:43:09.116Z,11.85
2022-09-23T19:45:38.878Z,12.50
2022-09-23T19:48:09.201Z,13.15
2022-09-23T19:50:41.666Z,12.57
2022-09-23T19:53:13.981Z,12.85
2022-09-23T19:55:44.422Z,13.43
2022-09-23T19:58:14.407Z,13.55
2022-09-23T20:00:44.449Z,13.10
2022-09-23T20:03:14.178Z,13.30
2022-09-23T20:05:43.853Z,12.68
2022-09-23T20:08:16.178Z,13.75
2022-09-23T20:10:46.909Z,14.02
2022-09-23T20:13:17.672Z,13.75
2022-09-23T20:15:48.409Z,14.02
2022-09-23T20:18:18.385Z,13.00
2022-09-23T20:20:48.077Z,12.95
2022-09-23T20:23:20.375Z,13.10
2022-09-23T20:26:10.761Z,13.98
2022-09-23T20:28:40.473Z,13.10
2022-09-23T20:31:10.270Z,14.60
2022-09-23T20:33:41.724Z,14.43
2022-09-23T20:36:13.423Z,14.93
2022-09-23T20:38:45.898Z,13.90
2022-09-23T20:41:18.246Z,14.82
2022-09-23T20:43:48.362Z,13.95
2022-09-23T20:46:18.118Z,14.77
2022-09-23T20:48:49.514Z,14.00
2022-09-23T20:51:19.573Z,13.77
2022-09-23T20:53:55.010Z,14.45
2022-09-23T20:56:25.494Z,13.77
2022-09-23T20:58:55.343Z,14.40
2022-09-23T21:01:25.075Z,14.55
2022-09-23T21:03:56.136Z,15.38
2022-09-23T21:06:27.050Z,14.80
2022-09-23T21:08:59.628Z,16.70
2022-09-23T21:11:29.389Z,16.25
2022-09-23T21:14:01.262Z,14.77
2022-09-23T21:16:31.632Z,14.38
2022-09-23T21:19:03.030Z,14.52
2022-09-23T21:21:32.915Z,14.70
2022-09-23T21:24:32.533Z,15.55
2022-09-23T21:26:55.237Z,14.43
2022-09-23T21:29:24.933Z,14.75
2022-09-23T21:31:54.698Z,16.23
2022-09-23T21:34:26.196Z,15.05
2022-09-23T21:36:56.813Z,15.27
2022-09-23T21:39:29.146Z,15.70
2022-09-23T21:41:58.844Z,15.77
2022-09-23T21:44:28.699Z,15.88
2022-09-23T21:46:59.482Z,16.30
2022-09-23T21:49:29.207Z,16.38
2022-09-23T21:52:00.858Z,16.70
2022-09-23T21:54:33.124Z,16.77
2022-09-23T21:57:02.871Z,15.20
2022-09-23T21:59:32.641Z,16.73
2022-09-23T22:02:03.033Z,16.77
2022-09-23T22:04:33.817Z,17.35
2022-09-23T22:07:03.590Z,16.80
2022-09-23T22:09:35.956Z,16.45
2022-09-23T22:12:09.972Z,17.05
2022-09-23T22:14:40.188Z,16.55
2022-09-23T22:17:12.366Z,17.33
2022-09-23T22:19:46.649Z,17.40
2022-09-23T22:22:18.897Z,16.92
2022-09-23T22:24:52.076Z,17.42
2022-09-23T22:27:23.795Z,16.92
2022-09-23T22:30:05.956Z,19.80
2022-09-23T22:32:54.257Z,19.67
2022-09-23T22:35:25.123Z,18.02
2022-09-23T22:37:54.796Z,18.05
2022-09-23T22:40:27.205Z,17.70
2022-09-23T22:42:57.071Z,17.27
2022-09-23T22:45:27.101Z,17.27
2022-09-23T22:47:56.785Z,17.42
2022-09-23T22:50:26.770Z,17.85
2022-09-23T22:52:56.477Z,18.77
2022-09-23T22:55:28.921Z,17.98
2022-09-23T22:58:10.414Z,18.20
2022-09-23T23:00:48.282Z,16.90
2022-09-23T23:03:20.556Z,18.17
2022-09-23T23:05:50.385Z,17.85
2022-09-23T23:08:20.524Z,17.83
2022-09-23T23:10:52.922Z,18.90
2022-09-23T23:13:22.627Z,18.05
2022-09-23T23:15:52.337Z,19.60
2022-09-23T23:18:22.038Z,18.92
2022-09-23T23:20:51.722Z,18.85
2022-09-23T23:23:21.427Z,19.10
2022-09-23T23:25:53.730Z,18.73
2022-09-23T23:28:23.446Z,19.02
2022-09-23T23:30:53.151Z,19.38
2022-09-23T23:33:22.887Z,22.08
2022-09-23T23:35:53.312Z,21.05
2022-09-23T23:38:23.094Z,20.30
2022-09-23T23:40:55.641Z,19.25
2022-09-23T23:43:25.622Z,20.33
2022-09-23T23:45:56.461Z,19.85
2022-09-23T23:48:26.504Z,20.75
2022-09-23T23:50:56.942Z,20.33
2022-09-23T23:53:27.527Z,19.75
2022-09-23T23:56:00.211Z,19.45
2022-09-23T23:58:30.759Z,19.90
